Time;durP1;ratioP1;P1;durP2;ratioP2;P2;SDS_P1;SDS_P2;PMS_P1;PMS_P2;Temp;Humidity;BMP_temperature;BMP_pressure;BME280_temperature;BME280_humidity;BME280_pressure;Samples;Min_cycle;Max_cycle;Signal;HPM_P1;HPM_P2
2021/05/04 00:00:47;;;;;;;3.05;2.58;;;14.60;57.50;;;;;;6169751;23;20507;-75
2021/05/04 00:03:13;;;;;;;2.85;2.50;;;14.60;57.50;;;;;;6159834;23;20060;-75
2021/05/04 00:05:41;;;;;;;2.58;2.20;;;14.60;57.50;;;;;;6169632;23;20017;-75
2021/05/04 00:08:07;;;;;;;2.95;2.60;;;14.60;57.50;;;;;;6160397;23;20022;-74
2021/05/04 00:10:33;;;;;;;3.10;2.80;;;14.60;57.60;;;;;;6169640;23;20418;-74
2021/05/04 00:12:59;;;;;;;3.20;2.90;;;14.60;57.60;;;;;;6169489;23;20017;-74
2021/05/04 00:15:28;;;;;;;2.97;2.65;;;14.60;57.60;;;;;;6169552;23;20010;-75
2021/05/04 00:18:01;;;;;;;4.65;3.17;;;14.60;57.60;;;;;;6159566;23;20022;-75
2021/05/04 00:20:27;;;;;;;3.35;2.70;;;14.60;57.70;;;;;;6159791;23;20029;-74
2021/05/04 00:22:53;;;;;;;2.63;2.42;;;14.60;57.60;;;;;;6169393;23;20273;-75
2021/05/04 00:25:19;;;;;;;3.30;2.63;;;14.60;57.70;;;;;;6159572;23;20057;-74
2021/05/04 00:27:45;;;;;;;3.38;2.42;;;14.60;57.70;;;;;;6169800;23;20076;-75
2021/05/04 00:30:11;;;;;;;3.13;2.58;;;14.60;57.70;;;;;;6159433;23;20085;-74
2021/05/04 00:32:37;;;;;;;3.80;2.55;;;14.60;57.70;;;;;;6169234;23;20036;-74
2021/05/04 00:35:04;;;;;;;3.03;2.60;;;14.60;57.70;;;;;;6169358;23;20335;-75
2021/05/04 00:37:29;;;;;;;3.97;2.90;;;14.60;57.80;;;;;;6169068;23;20496;-74
2021/05/04 00:39:55;;;;;;;3.80;2.83;;;14.60;57.80;;;;;;6169692;23;20009;-75
2021/05/04 00:42:24;;;;;;;3.28;2.70;;;14.60;57.80;;;;;;6168947;23;20024;-74
2021/05/04 00:44:50;;;;;;;3.75;2.80;;;14.60;57.90;;;;;;6159399;23;20017;-75
2021/05/04 00:47:16;;;;;;;2.72;2.33;;;14.60;57.80;;;;;;6160695;23;20013;-75
2021/05/04 00:49:41;;;;;;;2.75;2.30;;;14.60;57.90;;;;;;6169925;23;20013;-75
2021/05/04 00:52:07;;;;;;;2.83;2.53;;;14.60;57.90;;;;;;6169303;23;20013;-75
2021/05/04 00:54:33;;;;;;;4.35;2.88;;;14.60;57.90;;;;;;6169325;23;20014;-75
2021/05/04 00:57:00;;;;;;;2.58;2.30;;;14.60;58.00;;;;;;6169246;23;20025;-74
2021/05/04 00:59:27;;;;;;;3.75;2.55;;;14.60;58.00;;;;;;6169424;23;20076;-75
2021/05/04 01:01:53;;;;;;;3.10;2.30;;;14.60;58.00;;;;;;6168642;23;20013;-74
2021/05/04 01:04:21;;;;;;;3.75;2.78;;;14.60;58.00;;;;;;6160283;23;20284;-75
2021/05/04 01:06:47;;;;;;;3.63;2.72;;;14.60;58.00;;;;;;6160105;23;20084;-74
2021/05/04 01:09:14;;;;;;;4.82;2.90;;;14.60;58.00;;;;;;6168995;23;20010;-75
2021/05/04 01:11:41;;;;;;;3.38;2.53;;;14.60;58.10;;;;;;6168727;23;20403;-74
2021/05/04 01:14:08;;;;;;;5.53;2.83;;;14.60;58.10;;;;;;6159967;23;20009;-74
2021/05/04 01:16:35;;;;;;;3.35;2.50;;;14.60;58.10;;;;;;6169589;23;20013;-74
2021/05/04 01:19:01;;;;;;;3.80;3.03;;;14.60;58.10;;;;;;6159772;23;20108;-75
2021/05/04 01:21:26;;;;;;;3.22;2.92;;;14.50;58.10;;;;;;6158936;23;20033;-74
2021/05/04 01:23:52;;;;;;;3.53;3.08;;;14.50;58.10;;;;;;6168866;23;20014;-74
2021/05/04 01:26:18;;;;;;;3.28;2.70;;;14.50;58.10;;;;;;6168590;23;20018;-74
2021/05/04 01:28:44;;;;;;;3.50;3.20;;;14.60;58.20;;;;;;6169037;23;20080;-74
2021/05/04 01:31:10;;;;;;;3.58;3.17;;;14.50;58.20;;;;;;6169075;23;20037;-74
2021/05/04 01:33:36;;;;;;;3.55;2.80;;;14.50;58.20;;;;;;6158700;23;20017;-74
2021/05/04 01:36:03;;;;;;;3.47;3.17;;;14.60;58.20;;;;;;6169500;23;20020;-75
2021/05/04 01:38:29;;;;;;;3.22;2.90;;;14.50;58.20;;;;;;6169150;23;20009;-75
2021/05/04 01:40:55;;;;;;;3.30;2.45;;;14.50;58.30;;;;;;6168975;23;20091;-74
2021/05/04 01:43:20;;;;;;;3.17;2.65;;;14.60;58.30;;;;;;6159815;23;20014;-74
2021/05/04 01:45:46;;;;;;;3.75;2.83;;;14.50;58.20;;;;;;6165308;23;20287;-75
2021/05/04 01:48:12;;;;;;;4.55;3.30;;;14.60;58.30;;;;;;6158756;23;20425;-74
2021/05/04 01:50:38;;;;;;;3.83;3.25;;;14.60;58.40;;;;;;6169379;23;20017;-74
2021/05/04 01:53:04;;;;;;;3.53;2.72;;;14.50;58.40;;;;;;6158878;23;20017;-75
2021/05/04 01:55:30;;;;;;;5.00;3.35;;;14.50;58.50;;;;;;6159035;23;20397;-74
2021/05/04 01:57:56;;;;;;;3.40;2.90;;;14.60;58.60;;;;;;6158945;23;20033;-74
2021/05/04 02:00:22;;;;;;;3.58;2.85;;;14.60;58.60;;;;;;6158234;23;20415;-74
2021/05/04 02:02:48;;;;;;;4.47;3.15;;;14.60;58.50;;;;;;6158954;23;20029;-75
2021/05/04 02:05:14;;;;;;;2.75;2.50;;;14.50;58.50;;;;;;6159538;23;20035;-75
2021/05/04 02:07:40;;;;;;;2.92;2.50;;;14.50;58.50;;;;;;6168592;23;20434;-74
2021/05/04 02:10:06;;;;;;;3.38;2.72;;;14.50;58.60;;;;;;6168809;23;20024;-74
2021/05/04 02:12:32;;;;;;;3.58;2.70;;;14.50;58.60;;;;;;6168311;23;20014;-74
2021/05/04 02:14:59;;;;;;;3.00;2.70;;;14.50;58.60;;;;;;6168396;23;20017;-74
2021/05/04 02:17:25;;;;;;;2.67;2.40;;;14.50;58.50;;;;;;6168769;23;20014;-74
2021/05/04 02:19:51;;;;;;;2.95;2.42;;;14.50;58.60;;;;;;6168897;23;20010;-74
2021/05/04 02:22:17;;;;;;;4.10;2.38;;;14.50;58.60;;;;;;6158439;23;20013;-74
2021/05/04 02:24:43;;;;;;;3.58;2.75;;;14.50;58.60;;;;;;6158677;23;20024;-75
2021/05/04 02:27:09;;;;;;;3.30;2.40;;;14.50;58.60;;;;;;6168492;23;20024;-74
2021/05/04 02:29:35;;;;;;;2.60;2.38;;;14.50;58.60;;;;;;6168303;23;20044;-74
2021/05/04 02:32:00;;;;;;;3.25;2.40;;;14.50;58.80;;;;;;6168981;23;20013;-74
2021/05/04 02:34:26;;;;;;;2.65;2.35;;;14.50;58.80;;;;;;6168092;23;20315;-74
2021/05/04 02:36:52;;;;;;;2.35;2.10;;;14.50;58.80;;;;;;6159288;23;20018;-75
2021/05/04 02:39:18;;;;;;;2.88;2.50;;;14.50;58.80;;;;;;6167904;23;20291;-74
2021/05/04 02:41:44;;;;;;;2.08;1.70;;;14.50;58.70;;;;;;6168220;23;20017;-74
2021/05/04 02:44:10;;;;;;;2.65;2.17;;;14.50;58.60;;;;;;6168103;23;20041;-74
2021/05/04 02:46:35;;;;;;;2.00;1.80;;;14.50;58.60;;;;;;6161990;23;20361;-74
2021/05/04 02:49:02;;;;;;;2.78;2.28;;;14.50;58.60;;;;;;6167747;23;20009;-74
2021/05/04 02:51:27;;;;;;;2.53;1.80;;;14.50;58.60;;;;;;6157952;23;20096;-74
2021/05/04 02:53:53;;;;;;;2.33;1.80;;;14.50;58.60;;;;;;6167535;23;20044;-74
2021/05/04 02:56:19;;;;;;;2.88;1.83;;;14.50;58.60;;;;;;6158348;23;20108;-74
2021/05/04 02:58:45;;;;;;;3.20;1.80;;;14.50;58.70;;;;;;6167591;23;20415;-74
2021/05/04 03:01:11;;;;;;;2.72;1.70;;;14.50;58.70;;;;;;6168551;23;20010;-74
2021/05/04 03:03:39;;;;;;;2.33;1.83;;;14.50;58.70;;;;;;6158732;23;20127;-74
2021/05/04 03:06:06;;;;;;;4.03;2.00;;;14.50;58.70;;;;;;6142714;23;20048;-74
2021/05/04 03:08:32;;;;;;;2.20;1.80;;;14.50;58.80;;;;;;6167811;23;20022;-74
2021/05/04 03:10:58;;;;;;;2.30;1.67;;;14.50;58.80;;;;;;6167950;23;20020;-74
2021/05/04 03:13:26;;;;;;;2.65;2.15;;;14.50;58.90;;;;;;6157899;23;20013;-74
2021/05/04 03:15:53;;;;;;;3.20;1.90;;;14.50;59.00;;;;;;6167941;23;20014;-74
2021/05/04 03:18:20;;;;;;;2.40;1.73;;;14.50;59.00;;;;;;6168316;23;20023;-74
2021/05/04 03:20:48;;;;;;;1.88;1.60;;;14.50;58.90;;;;;;6167993;23;20098;-75
2021/05/04 03:23:14;;;;;;;2.28;1.77;;;14.50;59.00;;;;;;6157697;23;20009;-74
2021/05/04 03:25:41;;;;;;;2.88;1.70;;;14.50;59.10;;;;;;6167940;23;20020;-74
2021/05/04 03:28:08;;;;;;;2.45;1.70;;;14.50;59.10;;;;;;6158969;23;20052;-75
2021/05/04 03:30:37;;;;;;;2.15;1.52;;;14.50;59.00;;;;;;6167530;23;20303;-74
2021/05/04 03:33:04;;;;;;;2.95;1.98;;;14.50;59.10;;;;;;6158035;23;20016;-74
2021/05/04 03:35:30;;;;;;;3.00;1.42;;;14.40;59.10;;;;;;6168091;23;20029;-75
2021/05/04 03:37:56;;;;;;;1.88;1.30;;;14.50;59.30;;;;;;6167894;23;20017;-74
2021/05/04 03:40:22;;;;;;;2.80;1.85;;;14.40;59.20;;;;;;6167844;23;20087;-74
2021/05/04 03:42:47;;;;;;;1.70;1.60;;;14.40;59.30;;;;;;6168429;23;20009;-74
2021/05/04 03:45:13;;;;;;;2.47;1.70;;;14.50;59.30;;;;;;6157825;23;20048;-74
2021/05/04 03:47:41;;;;;;;2.17;1.27;;;14.50;59.20;;;;;;6167838;23;20052;-74
2021/05/04 03:50:10;;;;;;;1.67;1.20;;;14.40;59.20;;;;;;6167799;23;20033;-74
2021/05/04 03:52:36;;;;;;;1.55;1.20;;;14.50;59.40;;;;;;6157939;23;20045;-75
2021/05/04 03:55:03;;;;;;;2.15;1.38;;;14.40;59.30;;;;;;6167630;23;20016;-74
2021/05/04 03:57:29;;;;;;;2.67;1.25;;;14.50;59.40;;;;;;6167753;23;20021;-74
2021/05/04 03:59:54;;;;;;;1.90;1.50;;;14.50;59.30;;;;;;6167509;23;20017;-74
2021/05/04 04:02:20;;;;;;;2.10;1.20;;;14.50;59.30;;;;;;6157881;23;20014;-74
2021/05/04 04:04:46;;;;;;;4.00;1.65;;;14.50;59.40;;;;;;6168067;23;20076;-74
2021/05/04 04:07:12;;;;;;;1.88;1.20;;;14.40;59.30;;;;;;6167964;23;20079;-74
2021/05/04 04:09:38;;;;;;;2.38;1.40;;;14.50;59.40;;;;;;6167281;23;20355;-74
2021/05/04 04:12:04;;;;;;;3.38;1.10;;;14.50;59.50;;;;;;6167400;23;20477;-74
2021/05/04 04:14:31;;;;;;;2.35;1.13;;;14.50;59.40;;;;;;6157588;23;20025;-74
2021/05/04 04:16:57;;;;;;;3.22;1.20;;;14.40;59.40;;;;;;6168029;23;20044;-74
2021/05/04 04:19:26;;;;;;;1.17;0.88;;;14.40;59.50;;;;;;6167506;23;20013;-74
2021/05/04 04:21:52;;;;;;;2.92;1.20;;;14.40;59.40;;;;;;6157794;23;20080;-74
2021/05/04 04:24:18;;;;;;;3.72;1.30;;;14.40;59.40;;;;;;6167536;23;20013;-74
2021/05/04 04:26:44;;;;;;;2.78;1.30;;;14.40;59.40;;;;;;6167877;23;20044;-74
2021/05/04 04:29:10;;;;;;;1.88;1.10;;;14.40;59.50;;;;;;6167262;23;20403;-74
2021/05/04 04:31:36;;;;;;;2.67;1.40;;;14.40;59.50;;;;;;6167808;23;20419;-74
2021/05/04 04:34:03;;;;;;;1.92;1.10;;;14.40;59.40;;;;;;6167221;23;20097;-75
2021/05/04 04:36:29;;;;;;;2.70;1.10;;;14.40;59.50;;;;;;6159799;23;20013;-74
2021/05/04 04:38:55;;;;;;;2.35;0.80;;;14.40;59.50;;;;;;6159716;23;20276;-75
2021/05/04 04:41:20;;;;;;;2.65;1.17;;;14.40;59.50;;;;;;6169866;23;20009;-74
2021/05/04 04:43:46;;;;;;;1.48;1.00;;;14.40;59.50;;;;;;6169759;23;20017;-74
2021/05/04 04:46:12;;;;;;;1.83;0.98;;;14.40;59.50;;;;;;6158968;23;20048;-74
2021/05/04 04:48:38;;;;;;;1.98;1.00;;;14.40;60.10;;;;;;6169166;23;20020;-74
2021/05/04 04:51:04;;;;;;;1.58;1.05;;;14.40;59.40;;;;;;6169313;23;20072;-75
2021/05/04 04:53:30;;;;;;;1.52;0.93;;;14.40;59.40;;;;;;6169081;23;20006;-74
2021/05/04 04:55:56;;;;;;;2.45;1.20;;;14.40;60.00;;;;;;6169290;23;20013;-74
2021/05/04 04:58:22;;;;;;;1.40;0.75;;;14.40;59.40;;;;;;6159487;23;20028;-75
2021/05/04 05:00:48;;;;;;;2.88;1.10;;;14.40;59.40;;;;;;6159424;23;20013;-74
2021/05/04 05:03:14;;;;;;;2.13;0.80;;;14.40;59.40;;;;;;6169335;23;20419;-74
2021/05/04 05:05:40;;;;;;;3.10;1.13;;;14.40;59.40;;;;;;6159215;23;20053;-75
2021/05/04 05:08:06;;;;;;;3.38;1.02;;;14.40;59.40;;;;;;6168566;23;20017;-74
2021/05/04 05:10:31;;;;;;;2.63;0.90;;;14.40;59.40;;;;;;6159309;23;20017;-74
2021/05/04 05:12:58;;;;;;;3.58;1.20;;;14.40;59.50;;;;;;6168987;23;20507;-74
2021/05/04 05:15:24;;;;;;;2.90;1.10;;;14.40;59.50;;;;;;6169698;23;20079;-74
2021/05/04 05:17:50;;;;;;;2.63;0.95;;;14.40;59.50;;;;;;6158998;23;20018;-75
2021/05/04 05:20:16;;;;;;;3.20;1.55;;;14.40;59.60;;;;;;6169130;23;20024;-74
2021/05/04 05:22:45;;;;;;;5.30;1.42;;;14.40;59.60;;;;;;6168817;23;20010;-75
2021/05/04 05:25:12;;;;;;;3.72;1.15;;;14.40;59.60;;;;;;6159231;23;20287;-74
2021/05/04 05:27:38;;;;;;;4.65;1.35;;;14.40;59.60;;;;;;6169404;23;20014;-74
2021/05/04 05:30:08;;;;;;;2.33;1.20;;;14.40;59.60;;;;;;6159473;23;20014;-75
2021/05/04 05:32:34;;;;;;;2.90;1.20;;;14.40;59.60;;;;;;6168623;23;20291;-74
2021/05/04 05:35:00;;;;;;;4.97;1.15;;;14.40;59.60;;;;;;6158963;23;20017;-75
2021/05/04 05:37:27;;;;;;;2.90;1.23;;;14.40;59.70;;;;;;6168513;23;20100;-74
2021/05/04 05:39:53;;;;;;;4.50;1.33;;;14.40;59.70;;;;;;6159499;23;20320;-74
2021/05/04 05:42:20;;;;;;;4.93;1.42;;;14.40;59.80;;;;;;6168788;23;20067;-74
2021/05/04 05:44:46;;;;;;;5.47;1.70;;;14.40;59.80;;;;;;6169064;23;20010;-74
2021/05/04 05:47:12;;;;;;;5.53;1.60;;;14.40;59.90;;;;;;6159081;23;20020;-74
2021/05/04 05:49:39;;;;;;;4.43;1.65;;;14.40;60.00;;;;;;6158747;23;20017;-74
2021/05/04 05:52:05;;;;;;;5.05;1.70;;;14.40;60.00;;;;;;6158736;23;20048;-75
2021/05/04 05:54:31;;;;;;;5.43;1.92;;;14.40;60.00;;;;;;6168247;23;20013;-74
2021/05/04 05:56:58;;;;;;;5.15;1.80;;;14.40;60.00;;;;;;6168730;23;20037;-74
2021/05/04 05:59:24;;;;;;;6.40;1.60;;;14.40;60.00;;;;;;6168550;23;20013;-74
2021/05/04 06:01:50;;;;;;;7.40;2.40;;;14.40;60.00;;;;;;6168436;23;20019;-74
2021/05/04 06:04:16;;;;;;;6.20;1.52;;;14.40;60.00;;;;;;6168422;23;20017;-75
2021/05/04 06:06:42;;;;;;;6.55;2.30;;;14.40;59.90;;;;;;6168788;23;20009;-74
2021/05/04 06:09:08;;;;;;;6.35;2.30;;;14.30;59.90;;;;;;6159963;23;20279;-74
2021/05/04 06:11:34;;;;;;;7.13;1.80;;;14.40;60.00;;;;;;6158644;23;20419;-74
2021/05/04 06:14:00;;;;;;;10.55;2.22;;;14.40;60.00;;;;;;6158400;23;20052;-74
2021/05/04 06:16:26;;;;;;;8.55;2.55;;;14.40;60.00;;;;;;6168704;23;20014;-75
2021/05/04 06:18:52;;;;;;;7.10;2.22;;;14.40;60.00;;;;;;6159525;23;20322;-75
2021/05/04 06:21:18;;;;;;;5.78;2.30;;;14.40;60.00;;;;;;6158570;23;20031;-74
2021/05/04 06:23:44;;;;;;;7.90;2.13;;;14.40;60.00;;;;;;6168086;23;20022;-74
2021/05/04 06:26:10;;;;;;;10.10;2.08;;;14.40;60.00;;;;;;6168770;23;20422;-74
2021/05/04 06:28:37;;;;;;;7.07;2.70;;;14.40;60.00;;;;;;6168363;23;20009;-74
2021/05/04 06:31:04;;;;;;;10.10;2.85;;;14.40;60.00;;;;;;6168428;23;20080;-75
2021/05/04 06:33:32;;;;;;;8.20;2.15;;;14.40;60.10;;;;;;6158206;23;20064;-74
2021/05/04 06:35:57;;;;;;;9.27;2.50;;;14.40;60.20;;;;;;6168777;23;20014;-74
2021/05/04 06:38:43;;;;;;;8.23;2.55;;;14.30;60.10;;;;;;6157569;23;20407;-74
2021/05/04 06:41:09;;;;;;;7.15;2.05;;;14.40;60.20;;;;;;6168524;23;20014;-74
2021/05/04 06:43:35;;;;;;;5.95;2.10;;;14.40;60.20;;;;;;6158335;23;20091;-74
2021/05/04 06:46:03;;;;;;;6.25;2.30;;;14.40;60.20;;;;;;6158073;23;20397;-74
2021/05/04 06:48:29;;;;;;;8.15;2.38;;;14.40;60.20;;;;;;6168318;23;20108;-74
2021/05/04 06:50:57;;;;;;;10.27;3.20;;;14.40;60.20;;;;;;6158470;23;20504;-75
2021/05/04 06:53:24;;;;;;;8.68;2.65;;;14.30;60.20;;;;;;6168017;23;20009;-74
2021/05/04 06:55:50;;;;;;;8.98;2.55;;;14.30;60.20;;;;;;6168111;23;20048;-75
2021/05/04 06:58:16;;;;;;;6.28;2.15;;;14.40;60.20;;;;;;6157647;23;20028;-74
2021/05/04 07:00:42;;;;;;;10.05;2.78;;;14.40;60.10;;;;;;6167970;23;20080;-74
2021/05/04 07:03:07;;;;;;;9.15;2.33;;;14.40;60.10;;;;;;6167854;23;20024;-74
2021/05/04 07:05:34;;;;;;;6.30;2.25;;;14.40;60.10;;;;;;6158401;23;20021;-74
2021/05/04 07:08:00;;;;;;;9.98;2.75;;;14.40;60.10;;;;;;6158215;23;20021;-74
2021/05/04 07:10:25;;;;;;;9.23;2.92;;;14.40;60.20;;;;;;6168052;23;20017;-75
2021/05/04 07:12:51;;;;;;;7.60;2.58;;;14.40;60.20;;;;;;6167815;23;20017;-75
2021/05/04 07:15:17;;;;;;;10.93;2.58;;;14.40;60.20;;;;;;6158342;23;20411;-74
2021/05/04 07:17:43;;;;;;;7.80;2.50;;;14.40;60.20;;;;;;6168235;23;20010;-74
2021/05/04 07:20:10;;;;;;;7.85;2.70;;;14.40;60.20;;;;;;6168259;23;20028;-75
2021/05/04 07:22:36;;;;;;;7.75;2.45;;;14.40;60.30;;;;;;6167999;23;20013;-75
2021/05/04 07:25:04;;;;;;;10.95;2.90;;;14.40;60.30;;;;;;6168476;23;20009;-74
2021/05/04 07:27:30;;;;;;;9.13;2.65;;;14.40;60.30;;;;;;6167894;23;20020;-75
2021/05/04 07:29:56;;;;;;;9.90;2.75;;;14.40;60.30;;;;;;6168495;23;20287;-75
2021/05/04 07:32:21;;;;;;;10.25;2.88;;;14.40;60.30;;;;;;6167434;23;20100;-74
2021/05/04 07:34:48;;;;;;;13.45;3.28;;;14.40;60.40;;;;;;6158096;23;20092;-74
2021/05/04 07:37:15;;;;;;;9.32;2.58;;;14.40;60.30;;;;;;6167729;23;20427;-74
2021/05/04 07:39:41;;;;;;;10.27;2.70;;;14.40;60.40;;;;;;6158265;23;20017;-74
2021/05/04 07:42:09;;;;;;;11.63;2.85;;;14.40;60.90;;;;;;6167858;23;20425;-75
2021/05/04 07:44:35;;;;;;;9.57;2.75;;;14.40;60.30;;;;;;6157466;23;20423;-75
2021/05/04 07:47:01;;;;;;;8.18;2.40;;;14.40;60.30;;;;;;6159538;23;20025;-75
2021/05/04 07:49:47;;;;;;;9.93;2.90;;;14.40;60.30;;;;;;6168110;23;20017;-74
2021/05/04 07:52:13;;;;;;;8.30;2.47;;;14.40;60.40;;;;;;6168005;23;20091;-74
2021/05/04 07:54:42;;;;;;;11.35;3.22;;;14.40;60.40;;;;;;6168028;23;20106;-74
2021/05/04 07:57:09;;;;;;;9.15;2.20;;;14.50;60.40;;;;;;6168388;23;20339;-74
2021/05/04 07:59:35;;;;;;;11.88;2.67;;;14.40;60.30;;;;;;6167431;23;20024;-74
2021/05/04 08:02:02;;;;;;;9.02;2.28;;;14.40;60.30;;;;;;6167952;23;20041;-74
2021/05/04 08:04:29;;;;;;;7.25;2.10;;;14.40;60.30;;;;;;6167895;23;20287;-74
2021/05/04 08:06:56;;;;;;;6.70;1.83;;;14.40;60.30;;;;;;6167929;23;20037;-74
2021/05/04 08:09:25;;;;;;;8.35;2.45;;;14.50;60.40;;;;;;6158057;23;20100;-74
2021/05/04 08:11:51;;;;;;;7.28;2.70;;;14.40;60.30;;;;;;6160660;23;20060;-74
2021/05/04 08:14:18;;;;;;;7.93;2.35;;;14.40;60.30;;;;;;6169739;23;20028;-74
2021/05/04 08:16:43;;;;;;;11.48;2.15;;;14.40;60.30;;;;;;6159976;23;20105;-74
2021/05/04 08:19:09;;;;;;;9.48;2.35;;;14.40;60.30;;;;;;6169573;23;20017;-74
2021/05/04 08:21:36;;;;;;;9.48;2.63;;;14.40;60.30;;;;;;6160605;23;20037;-75
2021/05/04 08:24:02;;;;;;;6.97;1.70;;;14.40;60.40;;;;;;6169482;23;20010;-75
2021/05/04 08:26:28;;;;;;;5.88;2.35;;;14.40;60.40;;;;;;6169753;23;20014;-74
2021/05/04 08:28:55;;;;;;;8.90;2.63;;;14.40;60.30;;;;;;6169929;23;20067;-75
2021/05/04 08:31:21;;;;;;;6.93;1.80;;;14.40;60.30;;;;;;6169200;23;20013;-74
2021/05/04 08:33:47;;;;;;;8.80;2.25;;;14.40;60.30;;;;;;6169134;23;20415;-74
2021/05/04 08:36:13;;;;;;;4.97;2.08;;;14.40;60.40;;;;;;6169835;23;20017;-74
2021/05/04 08:38:39;;;;;;;7.28;2.17;;;14.40;60.40;;;;;;6169768;23;20063;-75
2021/05/04 08:41:07;;;;;;;7.05;2.17;;;14.40;60.40;;;;;;6169842;23;20041;-75
2021/05/04 08:43:34;;;;;;;7.22;1.92;;;14.40;60.40;;;;;;6168943;23;20430;-74
2021/05/04 08:46:03;;;;;;;6.35;2.10;;;14.40;60.40;;;;;;6165210;23;20013;-75
2021/05/04 08:48:30;;;;;;;8.43;2.03;;;14.40;60.40;;;;;;6168958;23;20352;-75
2021/05/04 08:50:58;;;;;;;8.50;1.85;;;14.40;60.40;;;;;;6168966;23;20084;-75
2021/05/04 08:53:25;;;;;;;6.80;2.10;;;14.40;60.40;;;;;;6168784;23;20291;-74
2021/05/04 08:55:50;;;;;;;7.30;2.25;;;14.40;60.30;;;;;;6169899;23;20021;-74
2021/05/04 08:58:16;;;;;;;8.70;2.38;;;14.40;60.30;;;;;;6169927;23;20331;-75
2021/05/04 09:00:42;;;;;;;6.25;1.70;;;14.40;60.30;;;;;;6169738;23;20021;-74
2021/05/04 09:03:23;;;;;;;7.63;2.10;;;14.40;60.30;;;;;;6169332;23;20076;-74
2021/05/04 09:06:05;;;;;;;7.47;2.03;;;14.40;60.30;;;;;;6169043;23;20028;-75
2021/05/04 09:08:37;;;;;;;8.77;2.55;;;14.40;60.20;;;;;;6169193;23;20303;-75
2021/05/04 09:14:23;;;;;;;6.82;1.65;;;14.40;60.20;;;;;;6159091;23;20009;-75
2021/05/04 09:17:31;;;;;;;6.43;2.40;;;14.40;60.20;;;;;;6169538;23;20017;-74
2021/05/04 09:20:10;;;;;;;8.43;2.20;;;14.40;60.20;;;;;;6158879;23;20121;-74
2021/05/04 09:22:39;;;;;;;6.93;1.73;;;14.40;60.10;;;;;;6168430;23;20395;-74
2021/05/04 09:25:26;;;;;;;8.48;2.22;;;14.40;60.20;;;;;;6169157;23;20044;-74
2021/05/04 09:28:12;;;;;;;8.25;2.08;;;14.40;60.20;;;;;;6159016;23;20014;-74
2021/05/04 09:30:38;;;;;;;8.07;1.83;;;14.40;60.20;;;;;;6168875;23;20013;-74
2021/05/04 09:33:11;;;;;;;5.25;1.63;;;14.40;60.30;;;;;;6168410;23;20025;-74
2021/05/04 09:35:37;;;;;;;7.18;1.85;;;14.40;60.30;;;;;;6168861;23;20014;-74
2021/05/04 09:38:14;;;;;;;6.38;1.73;;;14.40;60.30;;;;;;6168716;23;20010;-74
2021/05/04 09:40:50;;;;;;;5.60;1.70;;;14.40;60.30;;;;;;6168807;23;20091;-75
2021/05/04 09:43:17;;;;;;;7.30;1.60;;;14.40;60.30;;;;;;6158937;23;20092;-75
2021/05/04 09:46:03;;;;;;;5.63;1.60;;;14.40;60.40;;;;;;6159010;23;20040;-75
2021/05/04 09:48:38;;;;;;;5.10;1.15;;;14.40;60.30;;;;;;6158799;23;20022;-75
2021/05/04 09:51:18;;;;;;;5.18;1.48;;;14.40;60.40;;;;;;6168663;23;20009;-74
2021/05/04 09:53:57;;;;;;;4.72;1.25;;;14.40;60.40;;;;;;6168681;23;20072;-75
2021/05/04 09:56:33;;;;;;;5.10;1.38;;;14.40;60.40;;;;;;6168689;23;20041;-74
2021/05/04 09:59:02;;;;;;;4.75;1.35;;;14.50;60.50;;;;;;6168622;23;20017;-75
2021/05/04 10:01:28;;;;;;;5.22;1.30;;;14.40;60.50;;;;;;6168497;23;20419;-74
2021/05/04 10:03:54;;;;;;;6.50;1.38;;;14.40;60.40;;;;;;6169047;23;20036;-74
2021/05/04 10:06:21;;;;;;;3.47;1.20;;;14.40;60.40;;;;;;6168528;23;20418;-75
2021/05/04 10:08:50;;;;;;;5.32;1.85;;;14.40;60.40;;;;;;6168571;23;20013;-75
2021/05/04 10:11:19;;;;;;;4.35;1.20;;;14.40;60.40;;;;;;6168648;23;20277;-75
2021/05/04 10:13:47;;;;;;;5.93;1.45;;;14.40;60.40;;;;;;6158946;23;20018;-75
2021/05/04 10:16:13;;;;;;;5.72;1.30;;;14.40;60.40;;;;;;6168558;23;20033;-75
2021/05/04 10:18:39;;;;;;;5.75;1.13;;;14.40;60.40;;;;;;6169157;23;20028;-75
2021/05/04 10:21:07;;;;;;;4.05;1.20;;;14.40;60.40;;;;;;6168075;23;20478;-75
2021/05/04 10:23:35;;;;;;;3.40;1.00;;;14.40;60.40;;;;;;6168371;23;20352;-75
2021/05/04 10:26:13;;;;;;;3.63;0.90;;;14.40;60.40;;;;;;6168795;23;20068;-74
2021/05/04 10:28:40;;;;;;;4.40;1.10;;;14.40;60.40;;;;;;6158506;23;20014;-75
2021/05/04 10:31:08;;;;;;;5.40;1.15;;;14.40;60.40;;;;;;6167922;23;20398;-74
2021/05/04 10:33:37;;;;;;;3.33;0.60;;;14.40;60.40;;;;;;6168136;23;20044;-74
2021/05/04 10:36:04;;;;;;;4.80;1.00;;;14.40;60.40;;;;;;6168319;23;20063;-74
2021/05/04 10:38:53;;;;;;;4.22;1.00;;;14.50;60.40;;;;;;6159295;23;20025;-74
2021/05/04 10:41:20;;;;;;;3.80;1.05;;;14.40;60.40;;;;;;6158575;23;20092;-74
2021/05/04 10:43:57;;;;;;;4.50;0.82;;;14.40;60.40;;;;;;6167866;23;20013;-75
2021/05/04 10:46:35;;;;;;;5.43;1.25;;;14.40;60.40;;;;;;6158876;23;20025;-75
2021/05/04 10:49:01;;;;;;;4.00;1.20;;;14.40;60.40;;;;;;6168181;23;20032;-75
2021/05/04 10:51:46;;;;;;;5.15;0.98;;;14.40;60.30;;;;;;6168070;23;20028;-75
2021/05/04 10:54:14;;;;;;;3.80;1.13;;;14.50;60.30;;;;;;6168715;23;20020;-75
2021/05/04 10:56:42;;;;;;;4.28;1.10;;;14.40;60.30;;;;;;6168230;23;20013;-74
2021/05/04 10:59:24;;;;;;;4.63;0.95;;;14.50;60.30;;;;;;6168837;23;20029;-74
2021/05/04 11:02:09;;;;;;;3.30;0.82;;;14.50;60.30;;;;;;6167790;23;20312;-75
2021/05/04 11:04:40;;;;;;;3.13;0.82;;;14.50;60.20;;;;;;6168420;23;20017;-74
2021/05/04 11:07:05;;;;;;;2.70;0.80;;;14.40;60.20;;;;;;6168427;23;20013;-75
2021/05/04 11:09:31;;;;;;;3.83;1.00;;;14.40;60.10;;;;;;6168540;23;20013;-75
2021/05/04 11:11:57;;;;;;;4.32;0.80;;;14.40;60.10;;;;;;6168072;23;20020;-75
2021/05/04 11:14:28;;;;;;;5.15;1.10;;;14.50;60.20;;;;;;6167917;23;20014;-75
2021/05/04 11:16:54;;;;;;;2.72;0.73;;;14.40;60.10;;;;;;6167931;23;20024;-74
2021/05/04 11:19:25;;;;;;;5.07;0.98;;;14.40;60.20;;;;;;6157992;23;20037;-75
2021/05/04 11:21:58;;;;;;;4.80;0.82;;;14.40;60.20;;;;;;6167976;23;20013;-75
2021/05/04 11:24:30;;;;;;;3.42;0.90;;;14.40;60.20;;;;;;6168363;23;20033;-75
2021/05/04 11:26:58;;;;;;;4.13;0.65;;;14.50;60.20;;;;;;6168257;23;20010;-74
2021/05/04 11:29:38;;;;;;;4.95;0.60;;;14.40;60.10;;;;;;6167892;23;20018;-74
2021/05/04 11:32:17;;;;;;;5.75;1.10;;;14.40;60.00;;;;;;6158177;23;20036;-74
2021/05/04 11:34:55;;;;;;;2.08;0.80;;;14.40;60.00;;;;;;6144048;23;20064;-75
2021/05/04 11:37:23;;;;;;;5.30;0.80;;;14.50;60.10;;;;;;6168572;23;20010;-74
2021/05/04 11:39:57;;;;;;;3.17;0.70;;;14.40;60.00;;;;;;6167478;23;20439;-75
2021/05/04 11:42:26;;;;;;;;;;;14.40;60.00;;;;;;6157944;23;20017;-74
2021/05/04 11:45:21;;;;;;;1.88;0.70;;;14.40;60.00;;;;;;6168150;23;20199;-74
2021/05/04 11:47:52;;;;;;;2.50;0.70;;;14.40;60.10;;;;;;6169973;23;20407;-74
2021/05/04 11:50:28;;;;;;;4.07;1.23;;;14.40;60.00;;;;;;6159983;23;20028;-75
2021/05/04 11:52:59;;;;;;;3.72;0.80;;;14.40;60.00;;;;;;6169804;23;20009;-74
2021/05/04 11:55:27;;;;;;;1.67;0.80;;;14.40;60.00;;;;;;6169952;23;20020;-75
2021/05/04 11:57:57;;;;;;;3.22;0.80;;;14.40;60.50;;;;;;6160252;23;20362;-75
2021/05/04 12:00:26;;;;;;;3.25;0.90;;;14.40;59.90;;;;;;6169817;23;20430;-74
2021/05/04 12:02:52;;;;;;;1.90;0.60;;;14.40;59.90;;;;;;6169868;23;20423;-74
2021/05/04 12:05:29;;;;;;;4.07;0.80;;;14.40;59.90;;;;;;6169711;23;20009;-74
2021/05/04 12:07:56;;;;;;;2.90;0.70;;;14.40;59.90;;;;;;6169344;23;20407;-74
2021/05/04 12:10:24;;;;;;;3.97;0.80;;;14.40;60.00;;;;;;6144023;23;20010;-75
2021/05/04 12:12:56;;;;;;;3.38;0.80;;;14.40;60.00;;;;;;6169970;23;20009;-74
2021/05/04 12:15:37;;;;;;;5.20;0.88;;;14.40;60.00;;;;;;6169338;23;20076;-74
2021/05/04 12:18:11;;;;;;;6.75;1.08;;;14.40;60.00;;;;;;6170098;23;20013;-74
2021/05/04 12:20:41;;;;;;;4.40;0.73;;;14.40;60.00;;;;;;6169586;23;20013;-74
2021/05/04 12:23:09;;;;;;;3.58;0.82;;;14.40;60.00;;;;;;6169872;23;20419;-75
2021/05/04 12:25:59;;;;;;;5.80;1.10;;;14.40;60.00;;;;;;6169554;23;20014;-74
2021/05/04 12:28:32;;;;;;;3.67;1.10;;;14.40;59.90;;;;;;6169568;23;20013;-74
2021/05/04 12:31:06;;;;;;;2.80;0.82;;;14.40;60.00;;;;;;6159557;23;20009;-75
2021/05/04 12:33:34;;;;;;;6.10;1.30;;;14.40;59.90;;;;;;6169045;23;20072;-75
2021/05/04 12:36:09;;;;;;;4.00;0.93;;;14.40;59.90;;;;;;6169063;23;20013;-75
2021/05/04 12:38:55;;;;;;;5.70;0.98;;;14.40;59.90;;;;;;6169395;23;20014;-75
2021/05/04 12:41:24;;;;;;;7.57;1.67;;;14.40;59.90;;;;;;6169285;23;20033;-75
2021/05/04 12:43:59;;;;;;;5.55;1.02;;;14.40;59.90;;;;;;6162035;23;20355;-74
2021/05/04 12:46:31;;;;;;;3.17;1.25;;;14.30;59.80;;;;;;6159166;23;20021;-74
2021/05/04 12:48:58;;;;;;;4.82;1.10;;;14.30;59.80;;;;;;6169421;23;20021;-75
2021/05/04 12:51:27;;;;;;;4.43;1.13;;;14.30;59.80;;;;;;6159586;23;20013;-74
2021/05/04 12:54:06;;;;;;;4.90;1.00;;;14.30;59.80;;;;;;6168735;23;20014;-74